createdAt,value
2023-02-11T00:01:16.658Z,18.67
2023-02-11T00:04:19.595Z,20.25
2023-02-11T00:07:22.545Z,17.90
2023-02-11T00:10:25.440Z,18.98
2023-02-11T00:13:28.465Z,19.60
2023-02-11T00:16:32.574Z,17.58
2023-02-11T00:19:35.540Z,19.27
2023-02-11T00:22:38.493Z,18.33
2023-02-11T00:25:43.270Z,16.98
2023-02-11T00:28:47.265Z,17.58
2023-02-11T00:31:51.913Z,16.58
2023-02-11T00:34:55.472Z,17.25
2023-02-11T00:38:01.350Z,17.87
2023-02-11T00:41:05.075Z,16.48
2023-02-11T00:44:07.926Z,17.55
2023-02-11T00:47:10.746Z,17.25
2023-02-11T00:50:13.878Z,17.77
2023-02-11T00:53:16.801Z,16.80
2023-02-11T00:56:20.562Z,16.98
2023-02-11T00:59:23.469Z,16.95
2023-02-11T01:02:26.438Z,17.15
2023-02-11T01:05:35.619Z,16.02
2023-02-11T01:08:39.918Z,15.13
2023-02-11T01:11:44.525Z,17.33
2023-02-11T01:14:47.803Z,17.00
2023-02-11T01:17:51.067Z,15.98
2023-02-11T01:20:55.983Z,16.83
2023-02-11T01:23:59.394Z,15.57
2023-02-11T01:27:02.278Z,16.88
2023-02-11T01:30:07.042Z,16.88
2023-02-11T01:33:09.967Z,17.35
2023-02-11T01:36:13.419Z,15.82
2023-02-11T01:39:16.772Z,16.30
2023-02-11T01:42:24.212Z,17.55
2023-02-11T01:45:46.272Z,17.33
2023-02-11T01:48:55.481Z,18.17
2023-02-11T01:52:13.408Z,18.15
2023-02-11T01:55:35.850Z,17.30
2023-02-11T01:58:42.382Z,16.58
2023-02-11T02:01:56.290Z,17.58
2023-02-11T02:05:28.816Z,15.63
2023-02-11T02:08:38.982Z,16.85
2023-02-11T02:11:44.908Z,16.37
2023-02-11T02:14:47.751Z,16.88
2023-02-11T02:18:01.726Z,16.60
2023-02-11T02:21:36.498Z,18.50
2023-02-11T02:25:01.204Z,17.50
2023-02-11T02:28:44.546Z,17.50
2023-02-11T02:31:55.154Z,17.05
2023-02-11T02:35:26.803Z,17.88
2023-02-11T02:38:38.778Z,16.38
2023-02-11T02:41:42.846Z,17.98
2023-02-11T02:44:53.532Z,17.73
2023-02-11T02:47:56.727Z,17.70
2023-02-11T02:51:32.998Z,19.63
2023-02-11T02:54:54.329Z,17.73
2023-02-11T02:58:17.449Z,20.20
2023-02-11T03:01:26.558Z,18.27
2023-02-11T03:04:45.169Z,20.40
2023-02-11T03:07:56.067Z,19.77
2023-02-11T03:11:01.643Z,20.20
2023-02-11T03:14:11.327Z,19.65
2023-02-11T03:17:15.439Z,19.73
2023-02-11T03:20:22.065Z,21.08
2023-02-11T03:23:37.853Z,20.70
2023-02-11T03:26:46.778Z,18.95
2023-02-11T03:30:18.778Z,20.60
2023-02-11T03:33:30.691Z,20.57
2023-02-11T03:36:46.234Z,20.08
2023-02-11T03:39:56.233Z,20.20
2023-02-11T03:43:23.224Z,20.52
2023-02-11T03:46:38.202Z,20.73
2023-02-11T03:49:45.140Z,21.67
2023-02-11T03:52:50.020Z,25.35
2023-02-11T03:55:55.391Z,24.90
2023-02-11T03:58:58.410Z,21.77
2023-02-11T04:02:01.304Z,20.75
2023-02-11T04:05:06.777Z,18.77
2023-02-11T04:08:09.817Z,21.42
2023-02-11T04:11:12.894Z,20.42
2023-02-11T04:14:16.227Z,19.65
2023-02-11T04:17:19.294Z,21.10
2023-02-11T04:20:22.174Z,19.83
2023-02-11T04:23:25.013Z,18.23
2023-02-11T04:26:27.966Z,17.75
2023-02-11T04:29:32.132Z,18.17
2023-02-11T04:32:38.356Z,17.15
2023-02-11T04:35:41.551Z,16.93
2023-02-11T04:38:44.501Z,18.27
2023-02-11T04:41:47.418Z,19.27
2023-02-11T04:44:50.379Z,17.95
2023-02-11T04:47:53.264Z,17.15
2023-02-11T04:50:56.326Z,18.20
2023-02-11T04:53:59.390Z,19.73
2023-02-11T04:57:05.633Z,19.17
2023-02-11T05:00:10.085Z,21.35
2023-02-11T05:03:13.488Z,22.20
2023-02-11T05:06:16.258Z,19.80
2023-02-11T05:09:19.241Z,21.80
2023-02-11T05:12:22.158Z,20.90
2023-02-11T05:15:25.045Z,18.38
2023-02-11T05:18:28.228Z,21.45
2023-02-11T05:21:31.384Z,20.07
2023-02-11T05:24:34.647Z,19.42
2023-02-11T05:27:37.742Z,19.30
2023-02-11T05:30:40.866Z,17.83
2023-02-11T05:33:43.951Z,18.38
2023-02-11T05:36:46.885Z,17.50
2023-02-11T05:39:49.925Z,17.45
2023-02-11T05:42:52.886Z,18.17
2023-02-11T05:45:55.812Z,18.00
2023-02-11T05:48:58.974Z,18.63
2023-02-11T05:52:01.914Z,18.23
2023-02-11T05:55:05.251Z,18.67
2023-02-11T05:58:10.975Z,19.13
2023-02-11T06:01:13.970Z,18.80
2023-02-11T06:04:16.910Z,19.58
2023-02-11T06:07:19.982Z,18.20
2023-02-11T06:10:22.869Z,18.70
2023-02-11T06:13:25.782Z,21.48
2023-02-11T06:16:28.807Z,19.63
2023-02-11T06:19:31.875Z,18.50
2023-02-11T06:22:35.122Z,18.10
2023-02-11T06:25:38.081Z,19.08
2023-02-11T06:28:42.067Z,19.05
2023-02-11T06:31:45.250Z,20.25
2023-02-11T06:34:48.350Z,21.42
2023-02-11T06:37:53.958Z,21.20
2023-02-11T06:40:57.129Z,21.30
2023-02-11T06:43:59.992Z,21.73
2023-02-11T06:47:02.930Z,21.80
2023-02-11T06:50:08.120Z,23.38
2023-02-11T06:53:11.033Z,21.40
2023-02-11T06:56:20.281Z,19.80
2023-02-11T06:59:23.239Z,19.35
2023-02-11T07:02:26.403Z,20.02
2023-02-11T07:05:29.701Z,19.35
2023-02-11T07:08:37.220Z,18.70
2023-02-11T07:11:40.051Z,19.67
2023-02-11T07:14:43.238Z,19.02
2023-02-11T07:17:46.163Z,17.85
2023-02-11T07:20:49.041Z,20.58
2023-02-11T07:23:52.198Z,19.37
2023-02-11T07:26:55.160Z,20.63
2023-02-11T07:29:58.066Z,19.63
2023-02-11T07:33:01.027Z,18.98
2023-02-11T07:36:05.305Z,19.45
2023-02-11T07:39:11.024Z,22.77
2023-02-11T07:42:14.183Z,20.52
2023-02-11T07:45:18.278Z,21.80
2023-02-11T07:48:21.308Z,19.15
2023-02-11T07:51:27.673Z,19.88
2023-02-11T07:54:30.946Z,23.73
2023-02-11T07:57:33.931Z,22.75
2023-02-11T08:00:37.226Z,24.35
2023-02-11T08:03:42.909Z,22.15
2023-02-11T08:06:46.026Z,22.30
2023-02-11T08:09:49.143Z,20.63
2023-02-11T08:12:52.157Z,22.02
2023-02-11T08:15:57.838Z,21.40
2023-02-11T08:19:04.673Z,22.10
2023-02-11T08:22:07.803Z,22.73
2023-02-11T08:25:13.215Z,21.87
2023-02-11T08:28:16.061Z,23.52
2023-02-11T08:31:28.225Z,23.27
2023-02-11T08:34:31.268Z,23.80
2023-02-11T08:37:34.667Z,23.52
2023-02-11T08:40:37.570Z,23.13
2023-02-11T08:43:44.450Z,23.13
2023-02-11T08:46:47.819Z,24.48
2023-02-11T08:49:50.734Z,23.25
2023-02-11T08:52:53.630Z,24.40
2023-02-11T08:55:56.697Z,24.53
2023-02-11T08:58:59.722Z,25.10
2023-02-11T09:02:04.991Z,26.42
2023-02-11T09:05:09.215Z,25.52
2023-02-11T09:08:12.444Z,26.98
2023-02-11T09:11:17.201Z,28.30
2023-02-11T09:14:22.565Z,26.75
2023-02-11T09:17:25.678Z,27.90
2023-02-11T09:20:28.788Z,23.77
2023-02-11T09:23:34.491Z,24.55
2023-02-11T09:26:38.324Z,24.63
2023-02-11T09:29:41.149Z,16.17
2023-02-11T09:32:44.269Z,12.90
2023-02-11T09:35:47.498Z,19.73
2023-02-11T09:38:50.897Z,26.02
2023-02-11T09:42:03.274Z,13.93
2023-02-11T09:45:15.958Z,13.23
2023-02-11T09:48:21.999Z,14.18
2023-02-11T09:51:53.874Z,21.00
2023-02-11T09:55:02.758Z,24.58
2023-02-11T09:58:16.408Z,23.00
2023-02-11T10:02:00.778Z,22.33
2023-02-11T10:05:06.472Z,19.45
2023-02-11T10:08:20.180Z,18.25
2023-02-11T10:11:41.041Z,19.30
2023-02-11T10:15:15.900Z,15.20
2023-02-11T10:19:05.389Z,13.13
2023-02-11T10:22:25.718Z,17.67
2023-02-11T10:25:35.410Z,18.77
2023-02-11T10:28:40.555Z,19.63
2023-02-11T10:31:46.434Z,22.03
2023-02-11T10:35:00.031Z,22.25
2023-02-11T10:38:03.559Z,22.67
2023-02-11T10:41:07.375Z,23.08
2023-02-11T10:44:33.703Z,23.92
2023-02-11T10:47:39.268Z,23.17
2023-02-11T10:50:42.483Z,20.33
2023-02-11T10:53:47.542Z,18.13
2023-02-11T10:56:58.774Z,18.40
2023-02-11T11:00:25.920Z,15.10
2023-02-11T11:03:40.306Z,12.80
2023-02-11T11:06:47.010Z,13.80
2023-02-11T11:09:55.645Z,17.48
2023-02-11T11:12:58.645Z,18.25
2023-02-11T11:16:22.231Z,19.30
2023-02-11T11:19:25.886Z,15.10
2023-02-11T11:22:29.237Z,12.55
2023-02-11T11:25:32.303Z,14.40
2023-02-11T11:28:47.059Z,11.02
2023-02-11T11:32:04.463Z,11.35
2023-02-11T11:35:23.534Z,11.23
2023-02-11T11:38:29.451Z,12.05
2023-02-11T11:41:34.664Z,11.63
2023-02-11T11:44:39.915Z,11.05
2023-02-11T11:48:20.922Z,11.57
2023-02-11T11:51:28.434Z,17.57
2023-02-11T11:54:32.088Z,17.90
2023-02-11T11:57:38.600Z,22.52
2023-02-11T12:01:15.840Z,22.38
2023-02-11T12:04:27.984Z,23.80
2023-02-11T12:07:44.039Z,22.53
2023-02-11T12:10:46.813Z,22.33
2023-02-11T12:14:04.689Z,22.25
2023-02-11T12:17:16.845Z,21.35
2023-02-11T12:20:26.338Z,20.75
2023-02-11T12:23:58.039Z,20.47
2023-02-11T12:27:10.938Z,21.23
2023-02-11T12:30:28.765Z,21.98
2023-02-11T12:34:04.902Z,19.75
2023-02-11T12:37:32.879Z,20.88
2023-02-11T12:40:55.472Z,21.37
2023-02-11T12:43:59.273Z,20.98
2023-02-11T12:47:25.082Z,21.95
2023-02-11T12:51:14.520Z,20.10
2023-02-11T12:54:54.484Z,22.40
2023-02-11T12:58:01.916Z,19.90
2023-02-11T13:01:18.789Z,21.38
2023-02-11T13:04:37.696Z,22.92
2023-02-11T13:07:45.950Z,21.05
2023-02-11T13:10:59.819Z,23.95
2023-02-11T13:14:41.306Z,23.73
2023-02-11T13:17:58.413Z,24.67
2023-02-11T13:21:16.960Z,23.27
2023-02-11T13:24:26.553Z,25.88
2023-02-11T13:27:51.356Z,22.67
2023-02-11T13:31:05.016Z,22.57
2023-02-11T13:34:47.988Z,24.02
2023-02-11T13:37:51.336Z,23.95
2023-02-11T13:41:06.187Z,23.95
2023-02-11T13:44:09.127Z,25.55
2023-02-11T13:47:30.439Z,22.87
2023-02-11T13:50:39.758Z,22.80
2023-02-11T13:53:56.975Z,22.98
2023-02-11T13:57:23.439Z,24.20
2023-02-11T14:00:35.556Z,22.05
2023-02-11T14:04:18.289Z,24.33
2023-02-11T14:07:51.570Z,21.23
2023-02-11T14:11:00.828Z,23.13
2023-02-11T14:14:21.967Z,22.83
2023-02-11T14:17:31.580Z,24.13
2023-02-11T14:20:45.450Z,24.07
2023-02-11T14:23:51.503Z,22.05
2023-02-11T14:27:01.661Z,26.98
2023-02-11T14:30:26.481Z,24.63
2023-02-11T14:33:44.168Z,23.73
2023-02-11T14:36:53.019Z,26.07
2023-02-11T14:40:16.006Z,24.00
2023-02-11T14:43:24.561Z,24.10
2023-02-11T14:46:33.016Z,20.77
2023-02-11T14:49:39.890Z,22.75
2023-02-11T14:52:44.426Z,20.73
2023-02-11T14:55:52.589Z,22.17
2023-02-11T14:58:55.917Z,22.98
2023-02-11T15:01:59.440Z,23.08
2023-02-11T15:05:28.096Z,24.20
2023-02-11T15:08:33.658Z,24.27
2023-02-11T15:11:42.703Z,23.80
2023-02-11T15:14:53.141Z,25.20
2023-02-11T15:17:59.621Z,24.55
2023-02-11T15:21:03.138Z,23.98
2023-02-11T15:24:23.949Z,24.03
2023-02-11T15:27:26.920Z,20.50
2023-02-11T15:30:34.210Z,20.63
2023-02-11T15:33:37.280Z,19.40
2023-02-11T15:36:40.529Z,19.00
2023-02-11T15:39:45.958Z,19.07
2023-02-11T15:42:58.089Z,20.00
2023-02-11T15:46:02.110Z,20.98
2023-02-11T15:49:06.574Z,22.52
2023-02-11T15:52:09.639Z,21.48
2023-02-11T15:55:15.999Z,21.50
2023-02-11T15:58:20.017Z,21.20
2023-02-11T16:01:35.746Z,23.02
2023-02-11T16:04:39.148Z,24.30
2023-02-11T16:07:47.817Z,24.17
2023-02-11T16:11:02.626Z,24.37
2023-02-11T16:14:21.292Z,22.98
2023-02-11T16:17:30.439Z,22.23
2023-02-11T16:20:34.313Z,22.10
2023-02-11T16:23:42.103Z,23.25
2023-02-11T16:26:49.728Z,23.50
2023-02-11T16:29:53.342Z,23.33
2023-02-11T16:32:57.309Z,23.13
2023-02-11T16:36:02.245Z,22.67
2023-02-11T16:39:06.064Z,21.52
2023-02-11T16:42:11.601Z,22.17
2023-02-11T16:45:15.621Z,22.45
2023-02-11T16:48:20.163Z,24.40
2023-02-11T16:51:23.595Z,22.73
2023-02-11T16:54:27.753Z,22.92
2023-02-11T16:57:31.209Z,25.97
2023-02-11T17:00:34.512Z,30.20
2023-02-11T17:03:40.634Z,33.38
2023-02-11T17:06:44.665Z,33.20
2023-02-11T17:09:47.864Z,32.83
2023-02-11T17:12:51.189Z,32.63
2023-02-11T17:15:54.734Z,34.40
2023-02-11T17:18:58.501Z,38.58
2023-02-11T17:22:01.813Z,36.00
2023-02-11T17:25:04.949Z,33.90
2023-02-11T17:28:09.785Z,33.00
2023-02-11T17:31:13.331Z,25.83
2023-02-11T17:34:17.419Z,23.48
2023-02-11T17:37:21.154Z,21.27
2023-02-11T17:40:24.443Z,22.50
2023-02-11T17:43:28.391Z,21.83
2023-02-11T17:46:34.743Z,22.33
2023-02-11T17:49:38.464Z,22.52
2023-02-11T17:52:41.804Z,22.50
2023-02-11T17:55:44.934Z,24.83
2023-02-11T17:58:48.331Z,20.77
2023-02-11T18:01:51.522Z,21.33
2023-02-11T18:04:58.917Z,22.25
2023-02-11T18:08:02.816Z,21.02
2023-02-11T18:11:10.113Z,22.25
2023-02-11T18:14:13.414Z,21.80
2023-02-11T18:17:17.045Z,26.85
2023-02-11T18:20:20.390Z,31.05
2023-02-11T18:23:23.544Z,23.40
2023-02-11T18:26:28.166Z,23.30
2023-02-11T18:29:31.516Z,22.63
2023-02-11T18:32:37.231Z,23.52
2023-02-11T18:35:43.801Z,23.55
2023-02-11T18:38:47.203Z,24.20
2023-02-11T18:41:54.547Z,30.77
2023-02-11T18:44:59.806Z,28.10
2023-02-11T18:48:05.390Z,26.73
2023-02-11T18:51:15.939Z,23.88
2023-02-11T18:54:19.026Z,22.65
2023-02-11T18:57:22.328Z,24.83
2023-02-11T19:00:25.583Z,23.67
2023-02-11T19:03:28.532Z,29.75
2023-02-11T19:06:35.561Z,31.50
2023-02-11T19:09:41.417Z,28.35
2023-02-11T19:12:44.719Z,27.08
2023-02-11T19:15:47.990Z,22.67
2023-02-11T19:18:51.270Z,23.08
2023-02-11T19:21:56.019Z,22.88
2023-02-11T19:24:59.154Z,21.00
2023-02-11T19:28:03.403Z,19.30
2023-02-11T19:31:10.000Z,18.97
2023-02-11T19:34:16.048Z,15.30
2023-02-11T19:37:19.659Z,15.52
2023-02-11T19:40:25.710Z,15.75
2023-02-11T19:43:29.172Z,14.63
2023-02-11T19:46:37.610Z,15.07
2023-02-11T19:49:40.882Z,13.98
2023-02-11T19:52:44.731Z,15.20
2023-02-11T19:55:48.902Z,15.07
2023-02-11T19:58:52.066Z,14.50
2023-02-11T20:01:55.367Z,13.43
2023-02-11T20:04:58.531Z,14.60
2023-02-11T20:08:01.426Z,15.95
2023-02-11T20:11:06.931Z,13.95
2023-02-11T20:14:12.866Z,13.85
2023-02-11T20:17:16.141Z,13.30
2023-02-11T20:20:19.547Z,13.60
2023-02-11T20:23:24.368Z,15.48
2023-02-11T20:26:30.729Z,14.70
2023-02-11T20:29:36.691Z,13.18
2023-02-11T20:32:41.247Z,11.53
2023-02-11T20:35:44.178Z,9.07
2023-02-11T20:38:48.434Z,9.90
2023-02-11T20:41:53.400Z,9.38
2023-02-11T20:44:56.565Z,9.55
2023-02-11T20:47:59.773Z,8.93
2023-02-11T20:51:05.301Z,8.23
2023-02-11T20:54:12.879Z,9.13
2023-02-11T20:57:16.141Z,8.88
2023-02-11T21:00:19.545Z,8.98
2023-02-11T21:03:22.824Z,9.73
2023-02-11T21:06:30.793Z,7.97
2023-02-11T21:09:33.953Z,9.35
2023-02-11T21:12:37.254Z,8.85
2023-02-11T21:15:40.581Z,9.10
2023-02-11T21:18:44.237Z,9.63
2023-02-11T21:21:50.609Z,8.27
2023-02-11T21:24:53.730Z,9.82
2023-02-11T21:27:56.885Z,8.88
2023-02-11T21:31:00.080Z,9.57
2023-02-11T21:34:03.986Z,9.03
2023-02-11T21:37:07.243Z,9.73
2023-02-11T21:40:11.963Z,9.68
2023-02-11T21:43:15.234Z,9.82
2023-02-11T21:46:20.198Z,9.52
2023-02-11T21:49:23.364Z,9.87
2023-02-11T21:52:26.456Z,9.77
2023-02-11T21:55:29.593Z,9.43
2023-02-11T21:58:33.673Z,9.90
2023-02-11T22:01:37.317Z,13.43
2023-02-11T22:04:40.673Z,21.57
2023-02-11T22:07:43.828Z,13.48
2023-02-11T22:10:47.550Z,10.25
2023-02-11T22:13:55.630Z,11.80
2023-02-11T22:16:58.544Z,10.50
2023-02-11T22:20:01.650Z,10.40
2023-02-11T22:23:04.727Z,11.15
2023-02-11T22:26:13.097Z,11.27
2023-02-11T22:29:16.458Z,10.45
2023-02-11T22:32:19.588Z,13.30
2023-02-11T22:35:22.441Z,9.50
2023-02-11T22:38:25.735Z,9.48
2023-02-11T22:41:29.427Z,10.40
2023-02-11T22:44:32.312Z,9.63
2023-02-11T22:47:37.667Z,8.30
2023-02-11T22:50:40.899Z,8.97
2023-02-11T22:53:44.637Z,9.80
2023-02-11T22:56:51.073Z,10.85
2023-02-11T22:59:54.548Z,10.18
2023-02-11T23:02:57.524Z,9.40
2023-02-11T23:06:01.384Z,9.97
2023-02-11T23:09:08.857Z,8.90
2023-02-11T23:12:11.776Z,10.02
2023-02-11T23:15:14.650Z,9.73
2023-02-11T23:18:17.537Z,10.48
2023-02-11T23:21:23.890Z,9.20
2023-02-11T23:24:26.779Z,9.80
2023-02-11T23:27:29.607Z,9.95
2023-02-11T23:30:32.503Z,10.68
2023-02-11T23:33:35.418Z,10.35
2023-02-11T23:36:38.386Z,11.23
2023-02-11T23:39:42.210Z,9.27
2023-02-11T23:42:45.902Z,10.75
2023-02-11T23:45:49.056Z,9.35
2023-02-11T23:48:52.594Z,10.70
2023-02-11T23:51:55.641Z,9.93
2023-02-11T23:54:58.556Z,11.27
2023-02-11T23:58:01.439Z,10.63
